Terminal Aerodrome Forecast
Issued by NWS Sioux Falls, SD

Home | Current Version | Previous Version | Graphics & Text | Print | Product List | Glossary On
Versions: 1 2 3 4 5 6 7 8 9 10 11 12 13 14 15 16 17 18 19 20 21 22 23 24 25 26 27 28 29 30 31 32 33 34
905
FTUS43 KFSD 191504 AAA
TAFSUX
TAF AMD
KSUX 191504Z 1915/2012 15013KT 5SM BR OVC005
     FM191700 15013KT P6SM BKN010
     FM191800 15015G23KT P6SM SCT025
     FM191900 15016G24KT P6SM SCT250
     FM200300 16015G24KT P6SM SCT140 WS020/17045KT
     FM200700 21014KT P6SM SCT130
     FM200800 32013KT P6SM SCT130=

USA.gov is the U.S. government's official web portal to all federal, state and local government web resources and services.